sensor_id;sensor_type;location;lat;lon;timestamp;P1;durP1;ratioP1;P2;durP2;ratioP2
77278;SDS011;66332;50.436;15.378;2023-04-06T04:00:09;9.50;;;4.05;;
77278;SDS011;66332;50.436;15.378;2023-04-06T04:04:50;9.68;;;4.60;;
77278;SDS011;66332;50.436;15.378;2023-04-06T04:09:31;9.25;;;4.57;;
77278;SDS011;66332;50.436;15.378;2023-04-06T04:14:12;10.77;;;4.68;;
77278;SDS011;66332;50.436;15.378;2023-04-06T04:18:53;12.30;;;5.07;;
77278;SDS011;66332;50.436;15.378;2023-04-06T04:23:34;9.68;;;4.78;;
77278;SDS011;66332;50.436;15.378;2023-04-06T04:28:15;11.52;;;5.18;;
77278;SDS011;66332;50.436;15.378;2023-04-06T04:32:56;9.45;;;4.82;;
77278;SDS011;66332;50.436;15.378;2023-04-06T04:37:37;12.90;;;5.60;;
77278;SDS011;66332;50.436;15.378;2023-04-06T04:42:17;9.52;;;5.38;;
77278;SDS011;66332;50.436;15.378;2023-04-06T04:46:58;10.15;;;4.45;;
77278;SDS011;66332;50.436;15.378;2023-04-06T04:51:39;9.60;;;5.20;;
77278;SDS011;66332;50.436;15.378;2023-04-06T04:56:20;11.95;;;5.25;;
77278;SDS011;66332;50.436;15.378;2023-04-06T05:01:01;8.95;;;4.95;;
77278;SDS011;66332;50.436;15.378;2023-04-06T05:05:42;14.18;;;4.72;;
77278;SDS011;66332;50.436;15.378;2023-04-06T05:10:23;10.57;;;4.57;;
77278;SDS011;66332;50.436;15.378;2023-04-06T05:15:04;9.40;;;4.75;;
77278;SDS011;66332;50.436;15.378;2023-04-06T05:19:45;11.85;;;5.10;;
77278;SDS011;66332;50.436;15.378;2023-04-06T05:24:26;12.65;;;5.20;;
77278;SDS011;66332;50.436;15.378;2023-04-06T05:29:07;11.43;;;5.07;;
77278;SDS011;66332;50.436;15.378;2023-04-06T05:33:48;12.65;;;4.93;;
77278;SDS011;66332;50.436;15.378;2023-04-06T05:38:29;9.98;;;4.70;;
77278;SDS011;66332;50.436;15.378;2023-04-06T05:43:10;11.18;;;5.00;;
77278;SDS011;66332;50.436;15.378;2023-04-06T05:47:51;10.63;;;5.00;;
77278;SDS011;66332;50.436;15.378;2023-04-06T05:52:32;11.40;;;5.22;;
77278;SDS011;66332;50.436;15.378;2023-04-06T05:57:13;9.48;;;4.75;;
77278;SDS011;66332;50.436;15.378;2023-04-06T06:01:54;9.98;;;4.68;;
77278;SDS011;66332;50.436;15.378;2023-04-06T06:06:35;12.27;;;4.90;;
77278;SDS011;66332;50.436;15.378;2023-04-06T06:11:17;9.38;;;4.60;;
77278;SDS011;66332;50.436;15.378;2023-04-06T06:15:58;11.27;;;4.55;;
77278;SDS011;66332;50.436;15.378;2023-04-06T06:20:39;17.80;;;6.00;;
77278;SDS011;66332;50.436;15.378;2023-04-06T06:25:20;11.20;;;5.20;;
77278;SDS011;66332;50.436;15.378;2023-04-06T06:30:02;12.55;;;5.80;;
77278;SDS011;66332;50.436;15.378;2023-04-06T06:34:43;10.15;;;5.55;;
77278;SDS011;66332;50.436;15.378;2023-04-06T06:39:24;11.75;;;6.35;;
77278;SDS011;66332;50.436;15.378;2023-04-06T06:44:05;10.27;;;5.30;;
77278;SDS011;66332;50.436;15.378;2023-04-06T06:48:46;8.85;;;4.47;;
77278;SDS011;66332;50.436;15.378;2023-04-06T06:53:27;9.45;;;4.45;;
77278;SDS011;66332;50.436;15.378;2023-04-06T06:58:08;11.57;;;4.70;;
77278;SDS011;66332;50.436;15.378;2023-04-06T07:02:49;8.85;;;4.03;;
77278;SDS011;66332;50.436;15.378;2023-04-06T07:07:33;9.30;;;4.93;;
77278;SDS011;66332;50.436;15.378;2023-04-06T07:12:15;11.25;;;5.20;;
77278;SDS011;66332;50.436;15.378;2023-04-06T07:16:57;10.80;;;5.30;;
77278;SDS011;66332;50.436;15.378;2023-04-06T07:21:38;11.23;;;5.40;;
77278;SDS011;66332;50.436;15.378;2023-04-06T07:26:19;9.70;;;4.70;;
77278;SDS011;66332;50.436;15.378;2023-04-06T07:31:00;9.57;;;4.60;;
77278;SDS011;66332;50.436;15.378;2023-04-06T07:35:41;12.00;;;5.55;;
77278;SDS011;66332;50.436;15.378;2023-04-06T07:40:22;10.27;;;4.93;;
77278;SDS011;66332;50.436;15.378;2023-04-06T07:45:03;10.93;;;4.70;;
77278;SDS011;66332;50.436;15.378;2023-04-06T07:49:44;10.07;;;4.63;;
77278;SDS011;66332;50.436;15.378;2023-04-06T07:54:25;9.80;;;5.03;;
77278;SDS011;66332;50.436;15.378;2023-04-06T07:59:06;10.23;;;5.18;;
77278;SDS011;66332;50.436;15.378;2023-04-06T08:03:47;9.95;;;4.35;;
77278;SDS011;66332;50.436;15.378;2023-04-06T08:08:28;8.20;;;3.97;;
77278;SDS011;66332;50.436;15.378;2023-04-06T08:13:09;8.20;;;4.20;;
77278;SDS011;66332;50.436;15.378;2023-04-06T08:17:51;8.80;;;4.50;;
77278;SDS011;66332;50.436;15.378;2023-04-06T08:22:32;9.48;;;4.45;;
77278;SDS011;66332;50.436;15.378;2023-04-06T08:27:13;8.90;;;4.28;;
77278;SDS011;66332;50.436;15.378;2023-04-06T08:31:55;10.02;;;4.03;;
77278;SDS011;66332;50.436;15.378;2023-04-06T08:36:36;11.35;;;3.78;;
77278;SDS011;66332;50.436;15.378;2023-04-06T08:41:17;7.63;;;3.50;;
77278;SDS011;66332;50.436;15.378;2023-04-06T08:45:58;8.00;;;3.80;;
77278;SDS011;66332;50.436;15.378;2023-04-06T08:50:39;8.68;;;3.58;;
77278;SDS011;66332;50.436;15.378;2023-04-06T09:00:03;7.15;;;3.00;;
77278;SDS011;66332;50.436;15.378;2023-04-06T09:04:52;7.70;;;3.10;;
77278;SDS011;66332;50.436;15.378;2023-04-06T09:09:33;8.60;;;3.72;;
77278;SDS011;66332;50.436;15.378;2023-04-06T09:14:15;7.43;;;3.55;;
77278;SDS011;66332;50.436;15.378;2023-04-06T09:19:03;7.65;;;3.92;;
77278;SDS011;66332;50.436;15.378;2023-04-06T09:23:45;7.55;;;3.00;;
77278;SDS011;66332;50.436;15.378;2023-04-06T09:28:26;7.00;;;2.40;;
77278;SDS011;66332;50.436;15.378;2023-04-06T09:33:07;6.82;;;2.38;;
77278;SDS011;66332;50.436;15.378;2023-04-06T09:37:48;5.38;;;2.28;;
77278;SDS011;66332;50.436;15.378;2023-04-06T09:42:31;6.18;;;2.55;;
77278;SDS011;66332;50.436;15.378;2023-04-06T09:47:12;6.15;;;2.35;;
77278;SDS011;66332;50.436;15.378;2023-04-06T09:52:02;6.07;;;2.40;;
77278;SDS011;66332;50.436;15.378;2023-04-06T09:56:51;8.15;;;2.88;;
77278;SDS011;66332;50.436;15.378;2023-04-06T10:01:41;6.20;;;2.40;;
77278;SDS011;66332;50.436;15.378;2023-04-06T10:06:23;6.75;;;2.80;;
77278;SDS011;66332;50.436;15.378;2023-04-06T10:11:08;9.43;;;3.00;;
77278;SDS011;66332;50.436;15.378;2023-04-06T10:15:51;7.53;;;3.10;;
77278;SDS011;66332;50.436;15.378;2023-04-06T10:20:53;6.65;;;2.65;;
77278;SDS011;66332;50.436;15.378;2023-04-06T10:25:37;7.55;;;2.70;;
77278;SDS011;66332;50.436;15.378;2023-04-06T10:35:06;7.57;;;3.10;;
77278;SDS011;66332;50.436;15.378;2023-04-06T10:39:56;7.80;;;3.63;;
77278;SDS011;66332;50.436;15.378;2023-04-06T10:44:42;7.28;;;2.88;;
77278;SDS011;66332;50.436;15.378;2023-04-06T10:49:25;6.55;;;2.90;;
77278;SDS011;66332;50.436;15.378;2023-04-06T10:54:06;6.82;;;3.00;;
77278;SDS011;66332;50.436;15.378;2023-04-06T10:58:52;6.55;;;3.00;;
77278;SDS011;66332;50.436;15.378;2023-04-06T11:03:46;7.25;;;2.90;;
77278;SDS011;66332;50.436;15.378;2023-04-06T11:08:32;6.40;;;2.92;;
77278;SDS011;66332;50.436;15.378;2023-04-06T11:13:13;6.75;;;2.75;;
77278;SDS011;66332;50.436;15.378;2023-04-06T11:22:35;5.78;;;2.50;;
77278;SDS011;66332;50.436;15.378;2023-04-06T11:27:17;6.05;;;2.80;;
77278;SDS011;66332;50.436;15.378;2023-04-06T11:32:00;7.22;;;2.70;;
77278;SDS011;66332;50.436;15.378;2023-04-06T11:36:56;5.72;;;2.42;;
77278;SDS011;66332;50.436;15.378;2023-04-06T11:41:39;6.95;;;2.53;;
77278;SDS011;66332;50.436;15.378;2023-04-06T11:46:20;7.32;;;2.60;;
77278;SDS011;66332;50.436;15.378;2023-04-06T11:55:44;6.05;;;2.55;;
77278;SDS011;66332;50.436;15.378;2023-04-06T12:00:27;6.15;;;2.40;;
77278;SDS011;66332;50.436;15.378;2023-04-06T12:05:15;6.25;;;2.40;;
77278;SDS011;66332;50.436;15.378;2023-04-06T12:09:58;6.47;;;2.60;;
77278;SDS011;66332;50.436;15.378;2023-04-06T12:14:40;6.70;;;2.30;;
77278;SDS011;66332;50.436;15.378;2023-04-06T12:24:06;5.43;;;1.92;;
77278;SDS011;66332;50.436;15.378;2023-04-06T12:28:47;5.90;;;2.40;;
77278;SDS011;66332;50.436;15.378;2023-04-06T12:33:28;8.32;;;2.20;;
77278;SDS011;66332;50.436;15.378;2023-04-06T12:38:09;6.30;;;2.15;;
77278;SDS011;66332;50.436;15.378;2023-04-06T12:42:50;5.70;;;2.40;;
77278;SDS011;66332;50.436;15.378;2023-04-06T12:47:31;7.38;;;2.60;;
77278;SDS011;66332;50.436;15.378;2023-04-06T12:52:12;5.85;;;2.38;;
77278;SDS011;66332;50.436;15.378;2023-04-06T12:56:54;6.68;;;2.20;;
77278;SDS011;66332;50.436;15.378;2023-04-06T13:01:36;6.25;;;2.30;;
77278;SDS011;66332;50.436;15.378;2023-04-06T13:06:18;5.82;;;2.25;;
77278;SDS011;66332;50.436;15.378;2023-04-06T13:10:58;6.30;;;2.58;;
77278;SDS011;66332;50.436;15.378;2023-04-06T13:15:39;7.43;;;2.78;;
77278;SDS011;66332;50.436;15.378;2023-04-06T13:20:20;8.88;;;5.00;;
77278;SDS011;66332;50.436;15.378;2023-04-06T13:29:42;6.70;;;3.10;;
77278;SDS011;66332;50.436;15.378;2023-04-06T13:39:05;5.47;;;2.30;;
77278;SDS011;66332;50.436;15.378;2023-04-06T13:48:27;7.57;;;3.50;;
77278;SDS011;66332;50.436;15.378;2023-04-06T13:53:07;6.25;;;2.88;;
77278;SDS011;66332;50.436;15.378;2023-04-06T14:02:29;8.18;;;3.25;;
77278;SDS011;66332;50.436;15.378;2023-04-06T14:07:10;7.82;;;3.40;;
77278;SDS011;66332;50.436;15.378;2023-04-06T14:16:32;10.27;;;3.92;;
77278;SDS011;66332;50.436;15.378;2023-04-06T14:21:13;9.18;;;3.65;;
77278;SDS011;66332;50.436;15.378;2023-04-06T14:26:01;8.43;;;3.85;;
77278;SDS011;66332;50.436;15.378;2023-04-06T14:30:46;6.97;;;3.15;;
77278;SDS011;66332;50.436;15.378;2023-04-06T14:40:08;6.35;;;2.78;;
77278;SDS011;66332;50.436;15.378;2023-04-06T14:44:50;7.43;;;3.47;;
77278;SDS011;66332;50.436;15.378;2023-04-06T14:54:11;9.00;;;4.55;;
77278;SDS011;66332;50.436;15.378;2023-04-06T14:58:53;11.25;;;5.35;;
77278;SDS011;66332;50.436;15.378;2023-04-06T15:03:34;12.57;;;6.10;;
77278;SDS011;66332;50.436;15.378;2023-04-06T15:08:15;12.27;;;5.30;;
77278;SDS011;66332;50.436;15.378;2023-04-06T15:12:57;8.32;;;4.13;;
77278;SDS011;66332;50.436;15.378;2023-04-06T15:17:38;9.93;;;5.10;;
77278;SDS011;66332;50.436;15.378;2023-04-06T15:27:00;9.25;;;4.53;;
77278;SDS011;66332;50.436;15.378;2023-04-06T15:31:41;10.38;;;5.32;;
77278;SDS011;66332;50.436;15.378;2023-04-06T15:41:06;12.15;;;5.85;;
77278;SDS011;66332;50.436;15.378;2023-04-06T15:45:50;22.05;;;8.10;;
77278;SDS011;66332;50.436;15.378;2023-04-06T15:50:32;14.95;;;7.20;;
77278;SDS011;66332;50.436;15.378;2023-04-06T15:55:13;12.88;;;6.63;;
77278;SDS011;66332;50.436;15.378;2023-04-06T15:59:54;9.88;;;6.30;;
77278;SDS011;66332;50.436;15.378;2023-04-06T16:04:35;10.55;;;5.63;;
77278;SDS011;66332;50.436;15.378;2023-04-06T16:09:16;11.15;;;5.90;;
77278;SDS011;66332;50.436;15.378;2023-04-06T16:13:57;9.65;;;5.28;;
77278;SDS011;66332;50.436;15.378;2023-04-06T16:18:38;9.95;;;5.72;;
77278;SDS011;66332;50.436;15.378;2023-04-06T16:28:02;10.38;;;5.45;;
77278;SDS011;66332;50.436;15.378;2023-04-06T16:32:43;10.77;;;6.22;;
77278;SDS011;66332;50.436;15.378;2023-04-06T16:37:26;11.73;;;6.78;;
77278;SDS011;66332;50.436;15.378;2023-04-06T16:42:09;15.05;;;7.45;;
77278;SDS011;66332;50.436;15.378;2023-04-06T16:46:50;11.73;;;6.65;;
77278;SDS011;66332;50.436;15.378;2023-04-06T16:51:32;13.30;;;7.00;;
77278;SDS011;66332;50.436;15.378;2023-04-06T16:56:13;14.65;;;8.02;;
77278;SDS011;66332;50.436;15.378;2023-04-06T17:00:54;11.85;;;7.07;;
77278;SDS011;66332;50.436;15.378;2023-04-06T17:05:35;13.00;;;7.03;;
77278;SDS011;66332;50.436;15.378;2023-04-06T17:10:16;14.45;;;7.75;;
77278;SDS011;66332;50.436;15.378;2023-04-06T17:14:57;13.27;;;7.47;;
77278;SDS011;66332;50.436;15.378;2023-04-06T17:19:38;13.75;;;7.35;;
77278;SDS011;66332;50.436;15.378;2023-04-06T17:24:19;14.32;;;7.68;;
77278;SDS011;66332;50.436;15.378;2023-04-06T17:29:00;12.77;;;6.97;;
77278;SDS011;66332;50.436;15.378;2023-04-06T17:33:41;12.85;;;7.32;;
77278;SDS011;66332;50.436;15.378;2023-04-06T17:38:24;14.25;;;7.57;;
77278;SDS011;66332;50.436;15.378;2023-04-06T17:43:08;15.88;;;8.05;;
77278;SDS011;66332;50.436;15.378;2023-04-06T17:47:55;16.40;;;8.55;;
77278;SDS011;66332;50.436;15.378;2023-04-06T17:52:39;13.85;;;7.72;;
77278;SDS011;66332;50.436;15.378;2023-04-06T17:57:24;13.80;;;7.85;;
77278;SDS011;66332;50.436;15.378;2023-04-06T18:02:08;16.33;;;7.35;;
77278;SDS011;66332;50.436;15.378;2023-04-06T18:06:51;13.20;;;6.95;;
77278;SDS011;66332;50.436;15.378;2023-04-06T18:11:36;13.05;;;7.25;;
77278;SDS011;66332;50.436;15.378;2023-04-06T18:16:20;12.75;;;7.20;;
77278;SDS011;66332;50.436;15.378;2023-04-06T18:21:05;13.73;;;7.43;;
77278;SDS011;66332;50.436;15.378;2023-04-06T18:25:53;13.43;;;7.30;;
77278;SDS011;66332;50.436;15.378;2023-04-06T18:30:36;14.63;;;7.28;;
77278;SDS011;66332;50.436;15.378;2023-04-06T18:35:22;15.98;;;7.70;;
77278;SDS011;66332;50.436;15.378;2023-04-06T18:40:06;15.93;;;8.25;;
77278;SDS011;66332;50.436;15.378;2023-04-06T18:44:50;14.25;;;7.47;;
77278;SDS011;66332;50.436;15.378;2023-04-06T18:49:33;15.32;;;7.78;;
77278;SDS011;66332;50.436;15.378;2023-04-06T18:54:17;14.23;;;8.25;;
77278;SDS011;66332;50.436;15.378;2023-04-06T18:59:02;15.05;;;8.27;;
77278;SDS011;66332;50.436;15.378;2023-04-06T19:03:46;14.95;;;8.43;;
77278;SDS011;66332;50.436;15.378;2023-04-06T19:08:31;18.17;;;9.57;;
77278;SDS011;66332;50.436;15.378;2023-04-06T19:13:15;16.13;;;9.68;;
77278;SDS011;66332;50.436;15.378;2023-04-06T19:18:00;19.08;;;10.18;;
77278;SDS011;66332;50.436;15.378;2023-04-06T19:22:44;17.67;;;9.30;;
77278;SDS011;66332;50.436;15.378;2023-04-06T19:27:30;16.83;;;8.05;;
77278;SDS011;66332;50.436;15.378;2023-04-06T19:32:14;16.55;;;8.57;;
77278;SDS011;66332;50.436;15.378;2023-04-06T19:36:59;16.75;;;9.05;;
77278;SDS011;66332;50.436;15.378;2023-04-06T19:41:43;17.27;;;9.48;;
77278;SDS011;66332;50.436;15.378;2023-04-06T19:46:27;16.50;;;9.40;;
77278;SDS011;66332;50.436;15.378;2023-04-06T19:51:08;16.35;;;8.73;;
77278;SDS011;66332;50.436;15.378;2023-04-06T19:55:49;17.73;;;9.40;;
77278;SDS011;66332;50.436;15.378;2023-04-06T20:00:30;18.98;;;9.35;;
77278;SDS011;66332;50.436;15.378;2023-04-06T20:05:11;20.17;;;11.07;;
77278;SDS011;66332;50.436;15.378;2023-04-06T20:09:53;23.25;;;10.30;;
77278;SDS011;66332;50.436;15.378;2023-04-06T20:14:34;20.17;;;10.30;;
77278;SDS011;66332;50.436;15.378;2023-04-06T20:19:16;17.88;;;10.00;;
77278;SDS011;66332;50.436;15.378;2023-04-06T20:23:57;19.25;;;10.20;;
77278;SDS011;66332;50.436;15.378;2023-04-06T20:28:38;17.67;;;9.48;;
77278;SDS011;66332;50.436;15.378;2023-04-06T20:33:20;17.15;;;9.35;;
77278;SDS011;66332;50.436;15.378;2023-04-06T20:38:03;17.42;;;9.20;;
77278;SDS011;66332;50.436;15.378;2023-04-06T20:42:44;18.27;;;9.13;;
77278;SDS011;66332;50.436;15.378;2023-04-06T20:47:25;18.88;;;10.05;;
77278;SDS011;66332;50.436;15.378;2023-04-06T20:52:06;20.10;;;9.95;;
77278;SDS011;66332;50.436;15.378;2023-04-06T20:56:47;19.80;;;10.88;;
77278;SDS011;66332;50.436;15.378;2023-04-06T21:01:29;19.13;;;11.35;;
77278;SDS011;66332;50.436;15.378;2023-04-06T21:06:10;19.50;;;11.40;;
77278;SDS011;66332;50.436;15.378;2023-04-06T21:10:51;21.55;;;11.57;;
77278;SDS011;66332;50.436;15.378;2023-04-06T21:15:32;18.77;;;10.98;;
77278;SDS011;66332;50.436;15.378;2023-04-06T21:20:13;17.65;;;9.95;;
77278;SDS011;66332;50.436;15.378;2023-04-06T21:24:55;18.08;;;9.60;;
77278;SDS011;66332;50.436;15.378;2023-04-06T21:29:36;18.92;;;9.90;;
77278;SDS011;66332;50.436;15.378;2023-04-06T21:34:16;19.15;;;10.45;;
77278;SDS011;66332;50.436;15.378;2023-04-06T21:38:58;17.67;;;10.02;;
77278;SDS011;66332;50.436;15.378;2023-04-06T21:43:39;18.52;;;10.80;;
77278;SDS011;66332;50.436;15.378;2023-04-06T21:48:20;20.35;;;10.48;;
77278;SDS011;66332;50.436;15.378;2023-04-06T21:53:01;18.30;;;9.05;;
